Time;durP1;ratioP1;P1;durP2;ratioP2;P2;SDS_P1;SDS_P2;PMS_P1;PMS_P2;Temp;Humidity;BMP_temperature;BMP_pressure;BME280_temperature;BME280_humidity;BME280_pressure;Samples;Min_cycle;Max_cycle;Signal;HPM_P1;HPM_P2
2020/12/17 00:01:06;;;;;;;8.30;7.10;;;10.10;99.90;;;;;;4995283;28;20666;-66
2020/12/17 00:03:32;;;;;;;10.57;7.13;;;10.10;99.90;;;;;;5010350;28;20180;-66
2020/12/17 00:05:57;;;;;;;8.50;6.13;;;10.10;99.90;;;;;;5014949;28;20293;-66
2020/12/17 00:08:23;;;;;;;8.17;6.57;;;10.20;99.90;;;;;;5001673;28;20543;-65
2020/12/17 00:10:49;;;;;;;9.73;6.43;;;10.20;99.90;;;;;;5000774;28;20183;-65
2020/12/17 00:13:15;;;;;;;10.43;6.30;;;10.20;99.90;;;;;;5013540;28;20223;-66
2020/12/17 00:15:40;;;;;;;8.17;6.53;;;10.20;99.90;;;;;;5014900;28;20172;-66
2020/12/17 00:18:06;;;;;;;8.43;6.60;;;10.30;99.90;;;;;;5014466;28;20180;-66
2020/12/17 00:20:31;;;;;;;9.90;6.53;;;10.30;99.90;;;;;;4994881;28;20181;-66
2020/12/17 00:22:57;;;;;;;9.70;5.93;;;10.30;99.90;;;;;;4995232;28;20670;-65
2020/12/17 00:25:23;;;;;;;6.67;5.97;;;10.20;99.90;;;;;;5013650;28;20199;-66
2020/12/17 00:27:50;;;;;;;9.37;6.67;;;10.20;99.90;;;;;;5013869;28;20207;-65
2020/12/17 00:30:16;;;;;;;8.00;6.53;;;10.10;99.90;;;;;;4997267;28;20588;-65
2020/12/17 00:32:43;;;;;;;8.23;6.57;;;10.10;99.90;;;;;;4995043;28;20202;-66
2020/12/17 00:35:10;;;;;;;8.60;6.57;;;10.10;99.90;;;;;;5010459;28;20184;-66
2020/12/17 00:37:37;;;;;;;10.40;6.43;;;10.00;99.90;;;;;;5014399;28;20214;-66
2020/12/17 00:40:07;;;;;;;8.90;6.80;;;10.00;99.90;;;;;;5000015;28;20181;-65
2020/12/17 00:42:36;;;;;;;8.80;6.60;;;9.90;99.90;;;;;;4994737;28;20208;-66
2020/12/17 00:45:02;;;;;;;8.23;6.47;;;9.90;99.90;;;;;;5008405;28;20187;-65
2020/12/17 00:47:29;;;;;;;11.80;7.03;;;9.80;99.90;;;;;;5014565;28;20192;-65
2020/12/17 00:49:55;;;;;;;8.63;6.53;;;9.80;99.90;;;;;;5001945;28;20608;-65
2020/12/17 00:52:22;;;;;;;8.43;7.03;;;9.80;99.90;;;;;;4994684;28;20420;-66
2020/12/17 00:54:48;;;;;;;8.03;6.77;;;9.80;99.90;;;;;;5011739;28;20202;-66
2020/12/17 00:57:14;;;;;;;8.93;6.60;;;9.80;99.90;;;;;;5013711;28;20502;-66
2020/12/17 00:59:39;;;;;;;10.80;6.87;;;9.80;99.90;;;;;;4998385;28;20268;-66
2020/12/17 01:02:05;;;;;;;8.77;6.60;;;9.80;99.90;;;;;;4994354;28;20291;-66
2020/12/17 01:04:31;;;;;;;8.93;6.80;;;9.80;99.90;;;;;;5008221;28;20625;-65
2020/12/17 01:06:56;;;;;;;9.07;6.27;;;9.80;99.90;;;;;;5013850;28;20680;-65
2020/12/17 01:09:22;;;;;;;8.80;7.27;;;9.80;99.90;;;;;;5004908;28;20180;-66
2020/12/17 01:11:47;;;;;;;9.50;7.67;;;9.80;99.90;;;;;;4994068;28;20181;-66
2020/12/17 01:14:13;;;;;;;9.73;7.30;;;9.80;99.90;;;;;;5004804;28;20188;-65
2020/12/17 01:16:39;;;;;;;11.07;7.53;;;9.80;99.90;;;;;;5013711;28;20188;-66
2020/12/17 01:19:05;;;;;;;11.40;8.50;;;9.90;99.90;;;;;;5004617;28;20189;-65
2020/12/17 01:21:30;;;;;;;11.80;7.77;;;9.90;99.90;;;;;;4993908;28;20204;-65
2020/12/17 01:23:56;;;;;;;11.23;7.63;;;9.90;99.90;;;;;;5007335;28;20188;-66
2020/12/17 01:26:22;;;;;;;10.97;7.73;;;9.90;99.90;;;;;;5013825;28;20287;-66
2020/12/17 01:28:47;;;;;;;8.37;6.87;;;9.90;99.90;;;;;;5001152;28;20275;-65
2020/12/17 01:31:14;;;;;;;11.63;8.03;;;9.80;99.90;;;;;;4994398;28;20176;-65
2020/12/17 01:33:41;;;;;;;10.43;7.47;;;9.80;99.90;;;;;;5003641;28;20184;-66
2020/12/17 01:36:09;;;;;;;11.53;7.00;;;9.80;99.90;;;;;;5013409;28;20260;-65
2020/12/17 01:38:36;;;;;;;8.70;7.20;;;9.80;99.90;;;;;;5004185;28;20255;-66
2020/12/17 01:41:02;;;;;;;8.97;7.23;;;9.80;99.90;;;;;;4993491;28;20681;-66
2020/12/17 01:43:35;;;;;;;9.43;6.90;;;9.80;99.90;;;;;;5000828;28;20212;-66
2020/12/17 01:46:01;;;;;;;8.77;7.33;;;9.80;99.90;;;;;;5013309;28;20562;-65
2020/12/17 01:48:28;;;;;;;10.43;7.27;;;9.80;99.90;;;;;;5006206;28;20181;-65
2020/12/17 01:50:54;;;;;;;11.23;7.43;;;9.80;99.90;;;;;;5010800;28;20274;-66
2020/12/17 01:53:20;;;;;;;10.13;7.40;;;9.80;99.90;;;;;;5000228;28;20213;-65
2020/12/17 01:55:45;;;;;;;12.53;7.37;;;9.80;99.90;;;;;;4999181;28;20180;-66
2020/12/17 01:58:14;;;;;;;12.20;7.17;;;9.70;99.90;;;;;;5013134;28;20429;-66
2020/12/17 02:00:41;;;;;;;9.30;7.17;;;9.80;99.90;;;;;;5007731;28;20181;-66
2020/12/17 02:03:07;;;;;;;8.40;6.80;;;9.70;99.90;;;;;;4993258;28;20201;-65
2020/12/17 02:05:32;;;;;;;10.80;6.60;;;9.70;99.90;;;;;;4996085;28;20234;-65
2020/12/17 02:08:00;;;;;;;11.07;7.00;;;9.80;99.90;;;;;;5012824;28;20591;-65
2020/12/17 02:10:27;;;;;;;9.70;7.30;;;9.80;99.90;;;;;;5008832;28;20191;-66
2020/12/17 02:12:52;;;;;;;9.43;7.07;;;9.70;99.90;;;;;;4997260;28;20271;-65
2020/12/17 02:15:20;;;;;;;10.60;6.77;;;9.70;99.90;;;;;;4993280;28;20259;-65
2020/12/17 02:17:46;;;;;;;8.33;6.70;;;9.80;99.90;;;;;;4993936;28;20266;-66
2020/12/17 02:20:13;;;;;;;7.30;6.40;;;9.70;99.90;;;;;;4992813;28;20189;-65
2020/12/17 02:22:40;;;;;;;10.67;7.30;;;9.80;99.90;;;;;;5004565;28;20219;-65
2020/12/17 02:25:11;;;;;;;8.60;6.37;;;9.80;99.90;;;;;;5011017;28;20207;-66
2020/12/17 02:27:37;;;;;;;9.30;6.80;;;9.80;99.90;;;;;;5012492;28;20583;-65
2020/12/17 02:30:05;;;;;;;10.60;7.03;;;9.70;99.90;;;;;;5011547;28;20568;-66
2020/12/17 02:32:30;;;;;;;7.33;5.90;;;9.70;99.90;;;;;;4992735;28;20565;-66
2020/12/17 02:34:56;;;;;;;10.10;6.60;;;9.70;99.90;;;;;;4991640;28;20181;-66
2020/12/17 02:37:22;;;;;;;8.10;6.53;;;9.70;99.90;;;;;;5011370;28;20208;-66
2020/12/17 02:39:47;;;;;;;8.33;6.27;;;9.70;99.90;;;;;;5012346;28;20211;-66
2020/12/17 02:42:13;;;;;;;8.67;5.93;;;9.70;99.90;;;;;;4994656;28;20674;-65
2020/12/17 02:44:38;;;;;;;8.27;6.10;;;9.70;99.90;;;;;;4995007;28;20216;-66
2020/12/17 02:47:04;;;;;;;8.43;6.37;;;9.70;99.90;;;;;;5012150;28;20608;-65
2020/12/17 02:49:29;;;;;;;9.43;6.07;;;9.70;99.90;;;;;;5010997;28;20175;-65
2020/12/17 02:51:55;;;;;;;9.10;6.13;;;9.70;99.90;;;;;;5001344;28;20270;-65
2020/12/17 02:54:21;;;;;;;8.50;6.30;;;9.70;99.90;;;;;;5012244;28;20238;-66
2020/12/17 02:56:47;;;;;;;7.07;5.60;;;9.70;99.90;;;;;;4993710;28;20213;-65
2020/12/17 02:59:13;;;;;;;8.67;6.67;;;9.70;99.90;;;;;;4992460;28;20204;-65
2020/12/17 03:01:38;;;;;;;9.57;6.07;;;9.60;99.90;;;;;;4993064;28;20205;-66
2020/12/17 03:04:04;;;;;;;7.97;6.23;;;9.60;99.90;;;;;;4992391;28;20608;-66
2020/12/17 03:06:29;;;;;;;9.80;6.37;;;9.50;99.90;;;;;;5007409;28;20219;-65
2020/12/17 03:08:55;;;;;;;8.20;6.80;;;9.50;99.90;;;;;;5011913;28;20180;-65
2020/12/17 03:11:21;;;;;;;8.77;6.60;;;9.50;99.90;;;;;;4997642;28;20586;-66
2020/12/17 03:13:46;;;;;;;7.70;6.53;;;9.40;99.90;;;;;;4992277;28;20181;-65
2020/12/17 03:16:12;;;;;;;8.53;6.40;;;9.40;99.90;;;;;;5010449;28;20203;-66
2020/12/17 03:18:37;;;;;;;8.83;6.73;;;9.30;99.90;;;;;;5011730;28;20520;-65
2020/12/17 03:21:03;;;;;;;14.63;7.60;;;9.30;99.90;;;;;;4994481;28;20211;-66
2020/12/17 03:23:29;;;;;;;8.83;6.70;;;9.30;99.90;;;;;;4992032;28;20630;-65
2020/12/17 03:25:54;;;;;;;8.43;6.03;;;9.30;99.90;;;;;;5006704;28;20208;-65
2020/12/17 03:28:20;;;;;;;9.80;7.13;;;9.20;99.90;;;;;;5010933;28;20187;-65
2020/12/17 03:30:45;;;;;;;7.83;6.80;;;9.20;99.90;;;;;;4996834;28;20181;-66
2020/12/17 03:33:11;;;;;;;9.83;6.57;;;9.20;99.90;;;;;;4990846;28;20184;-65
2020/12/17 03:35:37;;;;;;;9.50;7.37;;;9.20;99.90;;;;;;5003293;28;20191;-65
2020/12/17 03:38:03;;;;;;;6.50;5.80;;;9.30;99.90;;;;;;5011724;28;20184;-65
2020/12/17 03:40:29;;;;;;;9.23;6.67;;;9.20;99.90;;;;;;5001209;28;20188;-65
2020/12/17 03:42:55;;;;;;;8.13;7.13;;;9.20;99.90;;;;;;4992027;28;20220;-65
2020/12/17 03:45:21;;;;;;;8.27;6.90;;;9.20;99.90;;;;;;5007045;28;20193;-65
2020/12/17 03:47:47;;;;;;;11.23;7.40;;;9.20;99.90;;;;;;5011483;28;20681;-65
2020/12/17 03:50:13;;;;;;;9.20;6.60;;;9.20;99.90;;;;;;4997347;28;20187;-66
2020/12/17 03:52:39;;;;;;;8.27;6.60;;;9.20;99.90;;;;;;5005602;28;20597;-66
2020/12/17 03:55:05;;;;;;;9.17;6.67;;;9.20;99.90;;;;;;4999152;28;20189;-65
2020/12/17 03:57:31;;;;;;;7.50;6.33;;;9.20;99.90;;;;;;4991764;28;20723;-66
2020/12/17 03:59:57;;;;;;;8.30;6.63;;;9.20;99.90;;;;;;5001827;28;20271;-66
2020/12/17 04:02:22;;;;;;;8.53;5.83;;;9.20;99.90;;;;;;5011681;28;20211;-66
2020/12/17 04:04:48;;;;;;;8.33;6.10;;;9.20;99.90;;;;;;5002253;28;20184;-65
2020/12/17 04:07:15;;;;;;;7.10;6.40;;;9.20;99.90;;;;;;4991637;28;20287;-66
2020/12/17 04:09:41;;;;;;;10.87;5.80;;;9.20;99.90;;;;;;4992775;28;20272;-66
2020/12/17 04:12:06;;;;;;;8.07;5.87;;;9.30;99.90;;;;;;4991508;28;20256;-66
2020/12/17 04:14:32;;;;;;;8.20;6.40;;;9.30;99.90;;;;;;5004312;28;20654;-66
2020/12/17 04:16:58;;;;;;;9.20;6.80;;;9.30;99.90;;;;;;5011212;28;20287;-65
2020/12/17 04:19:23;;;;;;;8.23;6.43;;;9.30;99.90;;;;;;4999625;28;20231;-65
2020/12/17 04:21:49;;;;;;;9.10;6.50;;;9.30;99.90;;;;;;4991308;28;20756;-66
2020/12/17 04:24:14;;;;;;;8.10;6.17;;;9.30;99.90;;;;;;5001449;28;20275;-66
2020/12/17 04:26:40;;;;;;;9.53;6.67;;;9.30;99.90;;;;;;5011072;28;20546;-66
2020/12/17 04:29:06;;;;;;;9.30;6.33;;;9.30;99.90;;;;;;5002090;28;20188;-65
2020/12/17 04:31:31;;;;;;;8.47;7.23;;;9.30;99.90;;;;;;4991279;28;20612;-66
2020/12/17 04:33:57;;;;;;;8.97;6.73;;;9.30;99.90;;;;;;5001074;28;20180;-66
2020/12/17 04:36:24;;;;;;;9.30;7.07;;;9.30;99.90;;;;;;5014607;28;20680;-65
2020/12/17 04:38:50;;;;;;;10.90;7.17;;;9.40;99.90;;;;;;5009534;28;20220;-66
2020/12/17 04:41:18;;;;;;;10.67;7.17;;;9.40;99.90;;;;;;4994562;28;20169;-66
2020/12/17 04:43:45;;;;;;;8.47;6.50;;;9.40;99.90;;;;;;5005705;28;20455;-66
2020/12/17 04:46:14;;;;;;;9.43;7.20;;;9.40;99.90;;;;;;5014546;28;20278;-66
2020/12/17 04:48:41;;;;;;;10.27;7.13;;;9.50;99.90;;;;;;5004327;28;20212;-66
2020/12/17 04:51:08;;;;;;;9.93;6.93;;;9.50;99.90;;;;;;4994544;28;20271;-66
2020/12/17 04:53:37;;;;;;;9.90;7.07;;;9.50;99.90;;;;;;5002931;28;20176;-65
2020/12/17 04:56:03;;;;;;;9.83;6.60;;;9.60;99.90;;;;;;5014355;28;20192;-65
2020/12/17 04:58:31;;;;;;;7.90;6.40;;;9.60;99.90;;;;;;5012596;28;20218;-66
2020/12/17 05:00:57;;;;;;;9.63;6.97;;;9.60;99.90;;;;;;5014358;28;20172;-65
2020/12/17 05:03:24;;;;;;;11.40;7.67;;;9.60;99.90;;;;;;5008145;28;20685;-65
2020/12/17 05:08:21;;;;;;;10.10;7.40;;;9.60;99.90;;;;;;5037226;28;20211;-64
2020/12/17 05:10:48;;;;;;;8.83;6.90;;;9.70;99.90;;;;;;5053536;28;20666;-64
2020/12/17 05:13:16;;;;;;;10.07;7.20;;;9.70;99.90;;;;;;5042878;28;20187;-63
2020/12/17 05:15:41;;;;;;;10.63;7.90;;;9.70;99.90;;;;;;5034373;28;20182;-63
2020/12/17 05:18:07;;;;;;;9.33;7.10;;;9.80;99.90;;;;;;5033743;28;20203;-65
2020/12/17 05:20:36;;;;;;;12.73;7.83;;;9.80;99.90;;;;;;5033319;28;20179;-65
2020/12/17 05:23:03;;;;;;;12.07;7.17;;;9.70;99.90;;;;;;5033152;28;20285;-62
2020/12/17 05:25:30;;;;;;;10.57;7.53;;;9.70;99.90;;;;;;5033673;28;20171;-64
2020/12/17 05:27:56;;;;;;;11.50;8.47;;;9.80;99.90;;;;;;5033417;28;20279;-64
2020/12/17 05:30:31;;;;;;;8.57;7.00;;;9.70;99.90;;;;;;5033250;28;20250;-64
2020/12/17 05:32:58;;;;;;;10.17;7.50;;;9.70;99.90;;;;;;5033380;28;20171;-63
2020/12/17 05:35:24;;;;;;;8.00;7.10;;;9.70;99.90;;;;;;5033520;28;20171;-63
2020/12/17 05:37:49;;;;;;;9.00;6.80;;;9.70;99.90;;;;;;5032983;28;20210;-64
2020/12/17 05:40:15;;;;;;;10.33;6.80;;;9.70;99.90;;;;;;5033148;28;20225;-63
2020/12/17 05:42:41;;;;;;;11.53;6.53;;;9.80;99.90;;;;;;5032846;28;20282;-63
2020/12/17 05:45:23;;;;;;;6.77;5.70;;;9.80;99.90;;;;;;5033404;28;20218;-64
2020/12/17 05:48:17;;;;;;;8.43;6.17;;;9.90;99.90;;;;;;5032840;28;20996;-63
2020/12/17 05:50:53;;;;;;;8.77;5.87;;;10.00;99.90;;;;;;5032909;28;20508;-64
2020/12/17 05:53:21;;;;;;;8.80;5.57;;;10.10;99.90;;;;;;5031952;28;20199;-62
2020/12/17 05:55:47;;;;;;;9.80;5.90;;;10.10;99.90;;;;;;5033248;28;20167;-63
2020/12/17 05:58:13;;;;;;;6.67;5.83;;;10.20;99.90;;;;;;5032785;28;20222;-64
2020/12/17 06:00:39;;;;;;;7.87;5.87;;;10.20;99.90;;;;;;5032592;28;20176;-63
2020/12/17 06:03:10;;;;;;;7.00;5.80;;;10.30;99.90;;;;;;5032516;28;20207;-64
2020/12/17 06:05:42;;;;;;;7.23;5.40;;;10.30;99.90;;;;;;5032828;28;20168;-64
2020/12/17 06:08:15;;;;;;;7.53;5.67;;;10.30;99.90;;;;;;5032426;28;20298;-64
2020/12/17 06:10:47;;;;;;;6.13;5.53;;;10.30;99.90;;;;;;5031146;28;20171;-63
2020/12/17 06:13:15;;;;;;;7.30;5.80;;;10.30;99.90;;;;;;5032189;28;20266;-65
2020/12/17 06:15:48;;;;;;;8.17;6.57;;;10.30;99.90;;;;;;5032834;28;20218;-61
2020/12/17 06:18:18;;;;;;;6.67;5.37;;;10.30;99.90;;;;;;5032644;28;20648;-63
2020/12/17 06:20:44;;;;;;;10.13;5.33;;;10.20;99.90;;;;;;5032142;28;20178;-63
2020/12/17 06:23:13;;;;;;;8.80;6.40;;;10.20;99.90;;;;;;5032436;28;20684;-61
2020/12/17 06:25:39;;;;;;;8.87;5.67;;;10.20;99.90;;;;;;5032458;28;20175;-64
2020/12/17 06:28:13;;;;;;;8.70;6.17;;;10.20;99.90;;;;;;5032400;28;20199;-63
2020/12/17 06:30:44;;;;;;;9.17;6.80;;;10.20;99.90;;;;;;5032023;28;20541;-63
2020/12/17 06:33:11;;;;;;;9.13;6.93;;;10.10;99.90;;;;;;5032232;28;20224;-63
2020/12/17 06:35:50;;;;;;;8.43;6.73;;;10.00;99.90;;;;;;5032483;28;20551;-65
2020/12/17 06:38:20;;;;;;;8.63;6.43;;;10.00;99.90;;;;;;5033183;28;20202;-66
2020/12/17 06:40:45;;;;;;;8.33;6.73;;;9.90;99.90;;;;;;5032415;28;20175;-65
2020/12/17 06:43:32;;;;;;;9.07;6.87;;;9.90;99.90;;;;;;5032912;28;20214;-64
2020/12/17 06:46:01;;;;;;;10.30;6.87;;;9.80;99.90;;;;;;5032343;28;20190;-64
2020/12/17 06:48:38;;;;;;;7.80;6.50;;;9.80;99.90;;;;;;5033155;28;20222;-66
2020/12/17 06:51:28;;;;;;;8.40;6.63;;;9.80;99.90;;;;;;5032966;28;20171;-65
2020/12/17 06:53:54;;;;;;;10.50;7.90;;;9.80;99.90;;;;;;5032387;28;20206;-66
2020/12/17 06:56:20;;;;;;;10.93;8.17;;;9.70;99.90;;;;;;5031161;28;20203;-64
2020/12/17 06:58:45;;;;;;;12.30;8.50;;;9.70;99.90;;;;;;5033185;28;20640;-66
2020/12/17 07:01:26;;;;;;;14.57;9.03;;;9.70;99.90;;;;;;5033396;28;20288;-65
2020/12/17 07:03:52;;;;;;;11.27;8.27;;;9.70;99.90;;;;;;5033679;28;20256;-65
2020/12/17 07:06:22;;;;;;;11.37;8.53;;;9.70;99.90;;;;;;5033258;28;20203;-65
2020/12/17 07:08:57;;;;;;;10.23;7.77;;;9.60;99.90;;;;;;5031429;28;20182;-66
2020/12/17 07:11:43;;;;;;;8.93;7.50;;;9.60;99.90;;;;;;5030544;28;20643;-62
2020/12/17 07:14:11;;;;;;;9.27;8.20;;;9.70;99.90;;;;;;5031473;28;20167;-63
2020/12/17 07:16:37;;;;;;;11.17;7.90;;;9.70;99.90;;;;;;5030177;28;20198;-63
2020/12/17 07:19:23;;;;;;;9.87;8.13;;;9.70;99.90;;;;;;5031325;28;20565;-64
2020/12/17 07:22:00;;;;;;;12.73;8.10;;;9.70;99.90;;;;;;5031414;28;20211;-65
2020/12/17 07:24:27;;;;;;;11.03;7.77;;;9.70;99.90;;;;;;5031133;28;20168;-65
2020/12/17 07:26:57;;;;;;;10.57;7.83;;;9.70;99.90;;;;;;5031050;28;20199;-64
2020/12/17 07:29:42;;;;;;;10.27;7.17;;;9.70;99.90;;;;;;5031057;28;20222;-65
2020/12/17 07:32:28;;;;;;;11.20;7.60;;;9.80;99.90;;;;;;5030908;28;20526;-62
2020/12/17 07:34:59;;;;;;;9.03;7.10;;;9.80;99.90;;;;;;5029945;28;20535;-64
2020/12/17 07:37:41;;;;;;;10.63;7.00;;;9.80;99.90;;;;;;5030970;28;20195;-64
2020/12/17 07:40:25;;;;;;;8.73;6.33;;;9.80;99.90;;;;;;5030806;28;20183;-64
2020/12/17 07:43:13;;;;;;;9.53;6.50;;;9.70;99.90;;;;;;5030993;28;20289;-64
2020/12/17 07:45:51;;;;;;;8.33;6.23;;;9.80;99.90;;;;;;5030784;28;20535;-64
2020/12/17 07:48:32;;;;;;;7.10;5.10;;;9.70;99.90;;;;;;5031487;28;20429;-63
2020/12/17 07:50:58;;;;;;;5.90;4.60;;;9.70;99.90;;;;;;5030583;28;20175;-64
2020/12/17 07:53:24;;;;;;;7.33;5.10;;;9.70;99.90;;;;;;5031290;28;20172;-62
2020/12/17 07:55:51;;;;;;;6.97;4.73;;;9.70;99.90;;;;;;5030622;28;20210;-64
2020/12/17 07:58:17;;;;;;;5.47;3.90;;;9.70;99.90;;;;;;5030062;28;20176;-64
2020/12/17 08:00:43;;;;;;;4.10;3.40;;;9.70;99.90;;;;;;5030637;28;20183;-64
2020/12/17 08:03:09;;;;;;;4.13;3.37;;;9.60;99.90;;;;;;5030975;28;20517;-63
2020/12/17 08:05:35;;;;;;;6.77;3.80;;;9.60;99.90;;;;;;5030615;28;20633;-63
2020/12/17 08:08:01;;;;;;;3.90;3.30;;;9.60;99.90;;;;;;5032862;28;20252;-63
2020/12/17 08:10:26;;;;;;;7.70;4.33;;;9.50;99.90;;;;;;5034292;28;20187;-63
2020/12/17 08:12:52;;;;;;;3.50;3.20;;;9.60;99.90;;;;;;5034481;28;20248;-64
2020/12/17 08:15:20;;;;;;;4.17;2.87;;;9.60;99.90;;;;;;5034444;28;20175;-62
2020/12/17 08:17:48;;;;;;;3.33;3.03;;;9.60;99.90;;;;;;5034348;28;20198;-63
2020/12/17 08:20:17;;;;;;;8.00;2.87;;;9.60;99.90;;;;;;5033889;28;20211;-66
2020/12/17 08:22:45;;;;;;;4.60;2.77;;;9.50;99.90;;;;;;5034126;28;20230;-64
2020/12/17 08:25:10;;;;;;;4.20;3.10;;;9.50;99.90;;;;;;5034336;28;20533;-64
2020/12/17 08:27:37;;;;;;;2.80;2.50;;;9.50;99.90;;;;;;5034276;28;20187;-64
2020/12/17 08:30:03;;;;;;;4.30;2.87;;;9.40;99.90;;;;;;5033957;28;20225;-64
2020/12/17 08:32:30;;;;;;;2.73;2.53;;;9.40;99.90;;;;;;5034266;28;20187;-64
2020/12/17 08:34:57;;;;;;;3.17;2.50;;;9.40;99.90;;;;;;5034019;28;20175;-65
2020/12/17 08:37:24;;;;;;;3.80;2.50;;;9.40;99.90;;;;;;5033523;28;20286;-64
2020/12/17 08:40:02;;;;;;;2.90;2.40;;;9.40;99.90;;;;;;5033685;28;20183;-65
2020/12/17 08:42:35;;;;;;;3.23;2.63;;;9.40;99.90;;;;;;5034169;28;20195;-64
2020/12/17 08:45:08;;;;;;;2.77;2.43;;;9.30;99.90;;;;;;5034237;28;20175;-65
2020/12/17 08:47:37;;;;;;;3.37;2.50;;;9.30;99.90;;;;;;5034053;28;20242;-64
2020/12/17 08:50:05;;;;;;;3.73;2.43;;;9.30;99.90;;;;;;5033351;28;20171;-64
2020/12/17 08:52:32;;;;;;;3.37;1.93;;;9.30;99.90;;;;;;5034048;28;20228;-64
2020/12/17 08:55:02;;;;;;;1.97;1.83;;;9.20;99.90;;;;;;5033896;28;20179;-64
2020/12/17 08:57:28;;;;;;;2.47;2.10;;;9.20;99.90;;;;;;5034118;28;20215;-65
2020/12/17 08:59:53;;;;;;;2.10;1.90;;;9.20;99.90;;;;;;5033634;28;20203;-65
2020/12/17 09:02:26;;;;;;;2.37;1.80;;;9.20;99.90;;;;;;5033866;28;20679;-63
2020/12/17 09:04:57;;;;;;;2.53;1.70;;;9.20;99.90;;;;;;5033590;28;20679;-63
2020/12/17 09:07:24;;;;;;;1.97;1.73;;;9.20;99.90;;;;;;5033589;28;20208;-64
2020/12/17 09:09:49;;;;;;;2.10;1.90;;;9.20;99.90;;;;;;5033762;28;20199;-64
2020/12/17 09:12:26;;;;;;;2.33;2.00;;;9.20;99.90;;;;;;5033575;28;20245;-64
2020/12/17 09:14:52;;;;;;;1.87;1.60;;;9.20;99.90;;;;;;5033649;28;20659;-62
2020/12/17 09:17:18;;;;;;;1.90;1.70;;;9.30;99.90;;;;;;5033518;28;20199;-66
2020/12/17 09:19:45;;;;;;;3.20;1.50;;;9.40;99.90;;;;;;5032605;28;20593;-64
2020/12/17 09:22:11;;;;;;;1.73;1.40;;;9.40;99.90;;;;;;5033307;28;20198;-62
2020/12/17 09:24:39;;;;;;;1.80;1.40;;;9.50;99.90;;;;;;5033196;28;20179;-64
2020/12/17 09:27:18;;;;;;;1.70;1.60;;;9.60;99.90;;;;;;5033311;28;20578;-64
2020/12/17 09:30:18;;;;;;;1.60;1.50;;;9.80;99.90;;;;;;5033039;28;20590;-64
2020/12/17 09:32:55;;;;;;;3.97;1.30;;;9.80;99.90;;;;;;5032980;28;20179;-64
2020/12/17 09:35:39;;;;;;;5.20;2.00;;;10.00;99.90;;;;;;5032786;28;20175;-64
2020/12/17 09:38:06;;;;;;;1.87;1.70;;;10.10;99.90;;;;;;5032714;28;20199;-63
2020/12/17 09:40:34;;;;;;;1.60;1.50;;;10.40;99.90;;;;;;5032211;28;20176;-65
2020/12/17 09:43:14;;;;;;;1.40;1.30;;;10.40;99.90;;;;;;5032986;28;20238;-63
2020/12/17 09:45:45;;;;;;;2.27;1.57;;;10.70;99.90;;;;;;5033005;28;20213;-64
2020/12/17 09:48:18;;;;;;;1.60;1.47;;;11.10;99.90;;;;;;5032808;28;20202;-64
2020/12/17 09:51:01;;;;;;;1.60;1.50;;;11.50;99.90;;;;;;5032774;28;20176;-64
2020/12/17 09:53:28;;;;;;;1.17;1.07;;;11.90;99.90;;;;;;5032701;28;20641;-65
2020/12/17 09:55:54;;;;;;;1.47;1.37;;;12.00;99.90;;;;;;5032994;28;20186;-64
2020/12/17 09:58:20;;;;;;;1.27;1.17;;;12.00;99.90;;;;;;5032691;28;20183;-63
2020/12/17 10:00:46;;;;;;;1.47;1.20;;;11.80;99.90;;;;;;5032437;28;20172;-64
2020/12/17 10:03:11;;;;;;;1.70;1.30;;;11.90;99.90;;;;;;5032456;28;20206;-64
2020/12/17 10:05:38;;;;;;;1.20;1.20;;;11.90;99.90;;;;;;5032564;28;20305;-64
2020/12/17 10:08:05;;;;;;;1.73;1.13;;;11.90;99.90;;;;;;5032614;28;20204;-63
2020/12/17 10:10:33;;;;;;;1.13;1.03;;;12.00;99.90;;;;;;5031726;28;20266;-67
2020/12/17 10:13:03;;;;;;;1.40;1.30;;;11.80;99.90;;;;;;5032639;28;20172;-64
2020/12/17 10:15:29;;;;;;;2.47;1.47;;;11.70;99.90;;;;;;5032276;28;20180;-64
2020/12/17 10:17:55;;;;;;;1.20;1.10;;;11.60;99.90;;;;;;5032246;28;20665;-64
2020/12/17 10:20:22;;;;;;;1.37;1.23;;;11.50;99.90;;;;;;5031898;28;20275;-65
2020/12/17 10:22:48;;;;;;;1.20;1.10;;;11.40;99.90;;;;;;5032124;28;20199;-64
2020/12/17 10:25:15;;;;;;;1.40;1.30;;;11.40;99.90;;;;;;5032361;28;20198;-64
2020/12/17 10:27:41;;;;;;;2.20;1.50;;;11.70;99.90;;;;;;5032209;28;20555;-64
2020/12/17 10:30:07;;;;;;;2.00;1.10;;;12.20;99.90;;;;;;5031010;28;20184;-64
2020/12/17 10:32:34;;;;;;;3.00;1.33;;;12.80;99.90;;;;;;5032253;28;20225;-64
2020/12/17 10:35:00;;;;;;;1.67;1.20;;;13.00;99.90;;;;;;5031774;28;20171;-65
2020/12/17 10:37:26;;;;;;;2.80;1.40;;;13.30;99.90;;;;;;5032155;28;20206;-65
2020/12/17 10:39:53;;;;;;;1.50;1.10;;;13.40;99.90;;;;;;5030952;28;20525;-65
2020/12/17 10:42:18;;;;;;;4.53;1.53;;;13.70;99.90;;;;;;5031772;28;20573;-64
2020/12/17 10:44:44;;;;;;;3.10;1.20;;;14.10;99.90;;;;;;5031933;28;20176;-65
2020/12/17 10:47:10;;;;;;;1.50;1.40;;;14.20;99.90;;;;;;5031861;28;20227;-65
2020/12/17 10:49:35;;;;;;;2.10;1.27;;;14.10;99.90;;;;;;5030716;28;20202;-64
2020/12/17 10:52:02;;;;;;;2.67;1.67;;;13.90;99.90;;;;;;5031667;28;20251;-63
2020/12/17 10:54:28;;;;;;;1.63;1.40;;;13.40;99.90;;;;;;5031726;28;20187;-63
2020/12/17 10:56:54;;;;;;;1.93;1.20;;;13.30;99.90;;;;;;5031854;28;20198;-64
2020/12/17 10:59:20;;;;;;;3.00;1.40;;;13.60;99.90;;;;;;5031585;28;20183;-63
2020/12/17 11:01:45;;;;;;;2.00;1.40;;;13.80;99.90;;;;;;5031286;28;20179;-63
2020/12/17 11:04:12;;;;;;;2.17;1.40;;;13.60;99.90;;;;;;5031640;28;20274;-64
2020/12/17 11:09:05;;;;;;;2.73;1.80;;;13.20;99.90;;;;;;5073708;28;20298;-65
2020/12/17 11:11:31;;;;;;;2.90;1.50;;;12.70;99.90;;;;;;5091362;28;20197;-65
2020/12/17 11:13:56;;;;;;;2.80;1.80;;;12.50;99.90;;;;;;5088601;28;20260;-63
2020/12/17 11:16:22;;;;;;;2.03;1.70;;;12.20;99.90;;;;;;5070378;28;20182;-65
2020/12/17 11:18:48;;;;;;;7.33;2.03;;;12.20;99.90;;;;;;5071573;28;20169;-65
2020/12/17 11:21:20;;;;;;;2.37;1.67;;;12.10;99.90;;;;;;5050940;28;20539;-65
2020/12/17 11:23:46;;;;;;;4.47;2.17;;;11.90;99.90;;;;;;5067913;28;20197;-66
2020/12/17 11:26:12;;;;;;;1.60;1.37;;;11.80;99.90;;;;;;5071652;28;20178;-65
2020/12/17 11:28:37;;;;;;;3.93;1.90;;;11.70;99.90;;;;;;5071204;28;20251;-65
2020/12/17 11:31:03;;;;;;;2.37;1.73;;;11.60;99.90;;;;;;5088776;28;20178;-65
2020/12/17 11:33:29;;;;;;;4.73;1.70;;;11.60;99.90;;;;;;5091721;28;20173;-65
2020/12/17 11:35:55;;;;;;;3.10;1.53;;;12.10;99.90;;;;;;5075086;28;20588;-65
2020/12/17 11:38:21;;;;;;;1.97;1.43;;;12.50;99.90;;;;;;5084484;28;20280;-65
2020/12/17 11:40:46;;;;;;;4.37;1.87;;;12.70;99.90;;;;;;5091201;28;20227;-65
2020/12/17 11:43:12;;;;;;;3.20;1.97;;;12.80;99.90;;;;;;5083456;28;20678;-63
2020/12/17 11:45:38;;;;;;;4.20;1.73;;;12.90;99.90;;;;;;5074831;28;20178;-63
2020/12/17 11:48:03;;;;;;;2.43;1.60;;;13.20;99.90;;;;;;5084798;28;20197;-63
2020/12/17 11:50:29;;;;;;;17.57;7.37;;;13.40;99.90;;;;;;5093979;28;20200;-63
2020/12/17 11:52:55;;;;;;;10.43;4.90;;;13.90;99.90;;;;;;5086446;28;20614;-63
2020/12/17 11:55:21;;;;;;;4.97;1.90;;;14.30;99.90;;;;;;5075758;28;20670;-64
2020/12/17 11:57:49;;;;;;;1.97;1.60;;;14.40;99.90;;;;;;5086999;28;20236;-63
2020/12/17 12:00:15;;;;;;;5.87;1.53;;;14.50;99.90;;;;;;5089373;28;20209;-64
2020/12/17 12:02:42;;;;;;;1.90;1.53;;;14.80;99.90;;;;;;5074657;28;20237;-63
2020/12/17 12:05:08;;;;;;;2.70;1.60;;;14.90;99.90;;;;;;5087282;28;20570;-63
2020/12/17 12:07:34;;;;;;;4.03;2.67;;;14.90;99.90;;;;;;5091962;28;20249;-63
2020/12/17 12:10:02;;;;;;;3.13;1.87;;;14.90;99.90;;;;;;5087749;28;20250;-63
2020/12/17 12:12:28;;;;;;;4.90;2.60;;;14.70;99.90;;;;;;5094209;28;20176;-63
2020/12/17 12:14:54;;;;;;;5.27;3.30;;;14.60;99.90;;;;;;5074642;28;20178;-63
2020/12/17 12:17:19;;;;;;;3.57;2.73;;;14.60;99.90;;;;;;5074567;28;20190;-63
2020/12/17 12:19:45;;;;;;;6.83;3.57;;;14.30;99.90;;;;;;5093161;28;20715;-63
2020/12/17 12:22:11;;;;;;;8.87;3.93;;;14.10;99.90;;;;;;5094511;28;20237;-63
2020/12/17 12:24:37;;;;;;;4.70;2.90;;;13.70;99.90;;;;;;5077118;28;20174;-63
2020/12/17 12:27:02;;;;;;;3.33;1.80;;;13.30;99.90;;;;;;5074250;28;20202;-63
2020/12/17 12:29:28;;;;;;;4.43;2.47;;;13.10;99.90;;;;;;5089815;28;20196;-63
2020/12/17 12:31:54;;;;;;;5.70;2.47;;;12.80;99.90;;;;;;5092367;28;20173;-63
2020/12/17 12:34:20;;;;;;;3.23;2.23;;;12.70;99.90;;;;;;5094654;28;20238;-64
2020/12/17 12:36:50;;;;;;;4.20;2.07;;;12.40;99.90;;;;;;5093987;28;20262;-65
2020/12/17 12:39:16;;;;;;;2.57;1.80;;;12.30;99.90;;;;;;5054523;28;20258;-65
2020/12/17 12:41:47;;;;;;;3.70;1.87;;;12.20;99.90;;;;;;5053649;28;20692;-65
2020/12/17 12:44:13;;;;;;;2.70;1.60;;;12.10;99.90;;;;;;5074294;28;20166;-65
2020/12/17 12:46:40;;;;;;;4.40;1.83;;;12.10;99.90;;;;;;5073880;28;20667;-64
2020/12/17 12:49:06;;;;;;;3.23;1.87;;;12.20;99.90;;;;;;5083181;28;20162;-64
2020/12/17 12:51:32;;;;;;;3.93;2.10;;;12.20;99.90;;;;;;5074330;28;20182;-64
2020/12/17 12:53:58;;;;;;;3.00;1.83;;;12.10;99.90;;;;;;5073256;28;20170;-64
2020/12/17 12:56:25;;;;;;;5.93;4.00;;;12.00;99.90;;;;;;5089161;28;20654;-65
2020/12/17 12:58:51;;;;;;;4.47;2.53;;;12.00;99.90;;;;;;5094366;28;20181;-65